Time;durP1;ratioP1;P1;durP2;ratioP2;P2;SDS_P1;SDS_P2;PMS_P1;PMS_P2;Temp;Humidity;BMP_temperature;BMP_pressure;BME280_temperature;BME280_humidity;BME280_pressure;Samples;Min_cycle;Max_cycle;Signal;HPM_P1;HPM_P2
2022/01/01 00:00:16;;;;;;;6.38;4.65;;;23.10;48.60;;;;;;5040637;28;43586;-67
2022/01/01 00:02:45;;;;;;;10.05;5.63;;;23.10;48.80;;;;;;5072741;27;43541;-71
2022/01/01 00:05:13;;;;;;;8.63;5.20;;;23.10;49.00;;;;;;5073986;27;45254;-67
2022/01/01 00:07:41;;;;;;;10.45;5.13;;;23.00;48.90;;;;;;5039188;28;43494;-67
2022/01/01 00:10:09;;;;;;;6.47;4.85;;;23.00;48.90;;;;;;5072323;27;43475;-68
2022/01/01 00:12:39;;;;;;;9.27;5.45;;;23.00;48.80;;;;;;5073039;28;43617;-69
2022/01/01 00:15:06;;;;;;;9.10;5.53;;;23.00;48.80;;;;;;5075574;27;43956;-66
2022/01/01 00:17:34;;;;;;;9.40;5.35;;;23.00;48.80;;;;;;5072861;28;43490;-67
2022/01/01 00:20:02;;;;;;;7.90;5.30;;;23.00;48.80;;;;;;5040241;28;43506;-68
2022/01/01 00:22:30;;;;;;;9.20;5.57;;;23.00;48.70;;;;;;5062711;28;43623;-67
2022/01/01 00:24:57;;;;;;;9.20;5.72;;;22.90;48.70;;;;;;5073029;28;45266;-67
2022/01/01 00:27:24;;;;;;;8.93;6.03;;;22.90;48.70;;;;;;5071852;28;43460;-67
2022/01/01 00:29:52;;;;;;;8.18;5.63;;;22.90;48.80;;;;;;5038520;28;43563;-69
2022/01/01 00:32:19;;;;;;;8.60;5.80;;;22.80;48.60;;;;;;5072626;28;43558;-67
2022/01/01 00:34:47;;;;;;;9.25;5.95;;;22.80;48.70;;;;;;5040098;28;44205;-68
2022/01/01 00:37:14;;;;;;;7.45;5.90;;;22.80;48.70;;;;;;5038218;28;43465;-68
2022/01/01 00:39:41;;;;;;;8.65;5.93;;;22.80;48.70;;;;;;5073220;28;43514;-67
2022/01/01 00:42:09;;;;;;;8.38;5.45;;;22.80;48.70;;;;;;5072934;28;43513;-68
2022/01/01 00:44:37;;;;;;;9.77;5.88;;;22.70;48.70;;;;;;5073526;27;45424;-67
2022/01/01 00:47:04;;;;;;;7.47;5.95;;;22.70;48.70;;;;;;5072915;28;44456;-69
2022/01/01 00:49:32;;;;;;;7.38;5.63;;;22.70;48.70;;;;;;5072865;27;43493;-69
2022/01/01 00:51:59;;;;;;;8.68;5.90;;;22.70;48.90;;;;;;5073168;28;43550;-67
2022/01/01 00:54:27;;;;;;;9.40;5.95;;;22.70;48.70;;;;;;5038513;28;43578;-68
2022/01/01 00:56:55;;;;;;;10.48;6.40;;;22.60;48.70;;;;;;5039804;28;43456;-69
2022/01/01 00:59:22;;;;;;;9.18;6.40;;;22.60;48.70;;;;;;5072509;27;43496;-68
2022/01/01 01:01:50;;;;;;;9.43;6.72;;;22.60;48.80;;;;;;5038540;28;43527;-70
2022/01/01 01:04:19;;;;;;;7.72;6.28;;;22.60;48.80;;;;;;5073778;28;43930;-67
2022/01/01 01:06:46;;;;;;;10.55;7.15;;;22.50;48.80;;;;;;5071523;27;43762;-68
2022/01/01 01:09:14;;;;;;;10.55;7.07;;;22.50;48.70;;;;;;5073061;27;43625;-68
2022/01/01 01:11:45;;;;;;;9.10;6.97;;;22.50;48.80;;;;;;5070165;28;43620;-69
2022/01/01 01:14:20;;;;;;;9.90;7.07;;;22.50;48.80;;;;;;5040507;28;45751;-68
2022/01/01 01:16:50;;;;;;;8.88;6.72;;;22.50;48.90;;;;;;5077314;28;44747;-68
2022/01/01 01:19:18;;;;;;;9.88;7.40;;;22.50;48.90;;;;;;5042067;28;43456;-68
2022/01/01 01:21:46;;;;;;;8.68;6.88;;;22.50;48.90;;;;;;5039739;28;43631;-67
2022/01/01 01:24:15;;;;;;;8.95;6.25;;;22.40;48.80;;;;;;5037294;28;45254;-68
2022/01/01 01:26:49;;;;;;;12.68;6.95;;;22.40;48.90;;;;;;5043039;28;44288;-69
2022/01/01 01:29:18;;;;;;;9.82;7.18;;;22.40;48.80;;;;;;5042283;28;43494;-68
2022/01/01 01:31:46;;;;;;;8.43;7.00;;;22.40;48.90;;;;;;5075650;28;43593;-69
2022/01/01 01:34:14;;;;;;;9.57;6.90;;;22.40;48.90;;;;;;5075848;28;45683;-67
2022/01/01 01:36:41;;;;;;;9.68;7.05;;;22.30;48.90;;;;;;5076289;27;43707;-68
2022/01/01 01:39:10;;;;;;;10.10;7.18;;;22.40;48.90;;;;;;5076012;28;43422;-68
2022/01/01 01:41:37;;;;;;;10.55;7.75;;;22.30;48.90;;;;;;5041226;28;43604;-67
2022/01/01 01:44:24;;;;;;;11.32;7.47;;;22.30;48.90;;;;;;5075824;27;43986;-67
2022/01/01 01:46:53;;;;;;;9.45;7.80;;;22.30;48.90;;;;;;5076379;28;44562;-68
2022/01/01 01:49:21;;;;;;;8.55;7.50;;;22.20;48.90;;;;;;5076559;27;43474;-67
2022/01/01 01:51:49;;;;;;;10.57;7.40;;;22.20;48.90;;;;;;5076499;28;43547;-67
2022/01/01 01:54:17;;;;;;;10.75;7.03;;;22.20;48.90;;;;;;5040711;28;44726;-67
2022/01/01 01:56:45;;;;;;;9.23;6.75;;;22.20;48.90;;;;;;5042442;28;44265;-69
2022/01/01 01:59:14;;;;;;;10.32;8.02;;;22.20;48.90;;;;;;5076637;27;43488;-67
2022/01/01 02:01:41;;;;;;;9.50;6.88;;;22.20;48.90;;;;;;5039495;28;43630;-67
2022/01/01 02:04:09;;;;;;;10.18;7.18;;;22.20;48.30;;;;;;5042129;28;45018;-68
2022/01/01 02:06:40;;;;;;;10.55;8.18;;;22.20;48.90;;;;;;5076228;28;45826;-69
2022/01/01 02:09:10;;;;;;;10.35;7.80;;;22.20;48.90;;;;;;5074526;28;43668;-68
2022/01/01 02:11:38;;;;;;;9.65;7.63;;;22.20;49.00;;;;;;5042100;28;43708;-67
2022/01/01 02:14:16;;;;;;;10.20;7.50;;;22.20;48.90;;;;;;5042083;28;44772;-69
2022/01/01 02:19:23;;;;;;;10.23;7.25;;;22.10;48.90;;;;;;5038817;28;43367;-67
2022/01/01 02:21:53;;;;;;;9.27;7.13;;;22.10;49.00;;;;;;5041066;28;43471;-67
2022/01/01 02:24:21;;;;;;;9.52;7.45;;;22.10;48.90;;;;;;5031838;28;45614;-67
2022/01/01 02:26:48;;;;;;;11.23;7.20;;;22.10;48.90;;;;;;5075296;27;43817;-68
2022/01/01 02:29:16;;;;;;;11.73;7.88;;;22.10;49.00;;;;;;5077319;27;43474;-67
2022/01/01 02:31:44;;;;;;;10.65;7.30;;;22.10;48.90;;;;;;5075632;27;43895;-68
2022/01/01 02:34:11;;;;;;;10.43;8.20;;;22.00;48.90;;;;;;5074934;28;46121;-68
2022/01/01 02:36:43;;;;;;;12.77;7.55;;;22.00;48.90;;;;;;5074961;27;44600;-67
2022/01/01 02:39:14;;;;;;;10.05;7.32;;;22.00;49.00;;;;;;5076869;27;43411;-69
2022/01/01 02:41:43;;;;;;;9.65;7.22;;;22.00;49.00;;;;;;5041731;28;43503;-67
2022/01/01 02:44:10;;;;;;;10.38;7.55;;;22.00;48.90;;;;;;5074633;27;43931;-68
2022/01/01 02:46:38;;;;;;;10.52;7.43;;;22.00;49.00;;;;;;5041804;28;44935;-68
2022/01/01 02:49:06;;;;;;;11.43;7.35;;;22.00;49.00;;;;;;5075803;28;43483;-68
2022/01/01 02:51:33;;;;;;;11.63;7.63;;;21.90;48.90;;;;;;5040463;28;43515;-67
2022/01/01 02:54:01;;;;;;;10.45;7.43;;;21.90;48.90;;;;;;5073463;27;45055;-69
2022/01/01 02:56:28;;;;;;;11.52;7.13;;;21.90;48.90;;;;;;5041818;28;43500;-69
2022/01/01 02:58:56;;;;;;;11.38;7.47;;;21.90;48.90;;;;;;5075619;28;43498;-68
2022/01/01 03:01:23;;;;;;;9.95;7.50;;;21.90;49.00;;;;;;5038025;28;43619;-68
2022/01/01 03:03:51;;;;;;;11.00;7.35;;;21.90;48.90;;;;;;5075379;27;43971;-67
2022/01/01 03:06:20;;;;;;;11.77;7.53;;;21.90;49.00;;;;;;5073460;27;44376;-68
2022/01/01 03:08:52;;;;;;;10.27;7.30;;;21.90;49.00;;;;;;5040763;28;43467;-68
2022/01/01 03:11:19;;;;;;;11.50;7.68;;;21.80;48.90;;;;;;5022798;28;43600;-67
2022/01/01 03:13:47;;;;;;;10.48;7.30;;;21.80;48.90;;;;;;5076488;27;43935;-68
2022/01/01 03:16:15;;;;;;;9.45;7.13;;;21.80;48.90;;;;;;5074807;28;43692;-67
2022/01/01 03:18:42;;;;;;;11.23;7.53;;;21.80;48.90;;;;;;5075465;28;43505;-68
2022/01/01 03:21:10;;;;;;;9.95;7.35;;;21.80;48.90;;;;;;5040143;28;43491;-67
2022/01/01 03:23:37;;;;;;;9.65;6.85;;;21.80;49.00;;;;;;5040230;28;43942;-68
2022/01/01 03:26:05;;;;;;;11.55;7.55;;;21.80;49.00;;;;;;5040272;28;43419;-68
2022/01/01 03:28:32;;;;;;;10.27;7.25;;;21.80;49.00;;;;;;5025116;28;43509;-67
2022/01/01 03:31:00;;;;;;;10.18;7.30;;;21.80;49.00;;;;;;5074012;27;43663;-68
2022/01/01 03:33:27;;;;;;;10.77;7.18;;;21.80;49.00;;;;;;5041188;28;44932;-67
2022/01/01 03:35:55;;;;;;;10.70;7.35;;;21.80;49.00;;;;;;5071035;28;43541;-69
2022/01/01 03:38:22;;;;;;;10.38;7.43;;;21.70;49.00;;;;;;5072077;27;43462;-68
2022/01/01 03:40:50;;;;;;;11.63;7.70;;;21.70;49.00;;;;;;5074099;28;43717;-67
2022/01/01 03:43:17;;;;;;;12.48;7.80;;;21.70;49.00;;;;;;5039526;28;43939;-67
2022/01/01 03:45:45;;;;;;;12.70;7.70;;;21.70;49.00;;;;;;5073199;27;43411;-69
2022/01/01 03:48:12;;;;;;;12.65;7.70;;;21.70;49.00;;;;;;5041146;28;43549;-68
2022/01/01 03:50:40;;;;;;;10.70;7.70;;;21.70;49.00;;;;;;5073473;27;43510;-68
2022/01/01 03:53:09;;;;;;;11.80;7.47;;;21.70;49.60;;;;;;5040415;28;44057;-68
2022/01/01 03:55:37;;;;;;;11.52;7.75;;;21.70;49.00;;;;;;5040701;28;43469;-68
2022/01/01 03:58:04;;;;;;;10.60;7.63;;;21.70;49.00;;;;;;5040331;28;43517;-68
2022/01/01 04:00:32;;;;;;;11.60;7.55;;;21.60;49.00;;;;;;5073678;28;43551;-68
2022/01/01 04:03:10;;;;;;;11.52;8.57;;;21.60;49.00;;;;;;5074282;27;45655;-68
2022/01/01 04:05:42;;;;;;;11.77;8.10;;;21.60;49.00;;;;;;5074677;27;43514;-67
2022/01/01 04:08:10;;;;;;;11.48;7.75;;;21.60;49.10;;;;;;5074472;28;44052;-67
2022/01/01 04:10:39;;;;;;;9.95;7.72;;;21.60;49.00;;;;;;5072499;27;43516;-68
2022/01/01 04:13:08;;;;;;;13.50;8.52;;;21.60;49.00;;;;;;5074610;28;45725;-67
2022/01/01 04:15:37;;;;;;;10.63;8.23;;;21.60;49.00;;;;;;5071693;27;44277;-68
2022/01/01 04:18:11;;;;;;;13.38;8.50;;;21.60;49.10;;;;;;5074078;28;44058;-68
2022/01/01 04:20:44;;;;;;;10.65;7.55;;;21.50;49.00;;;;;;5073532;28;43494;-68
2022/01/01 04:23:12;;;;;;;10.63;8.00;;;21.50;49.00;;;;;;5072596;27;44224;-67
2022/01/01 04:25:40;;;;;;;12.85;8.13;;;21.50;49.00;;;;;;5033126;28;44664;-69
2022/01/01 04:28:07;;;;;;;10.27;7.85;;;21.60;49.10;;;;;;5069086;28;43474;-68
2022/01/01 04:30:34;;;;;;;12.77;8.48;;;21.60;49.10;;;;;;5074376;27;43569;-68
2022/01/01 04:33:02;;;;;;;10.63;7.70;;;21.50;49.00;;;;;;5074073;27;43953;-67
2022/01/01 04:35:29;;;;;;;12.85;7.90;;;21.50;49.00;;;;;;5070993;27;43534;-67
2022/01/01 04:37:57;;;;;;;11.65;7.72;;;21.50;49.10;;;;;;5040474;28;43476;-67
2022/01/01 04:40:25;;;;;;;13.57;8.75;;;21.50;49.00;;;;;;5074476;27;43526;-68
2022/01/01 04:42:52;;;;;;;12.27;7.88;;;21.50;49.10;;;;;;5074419;27;44961;-69
2022/01/01 04:45:20;;;;;;;9.43;7.28;;;21.50;49.10;;;;;;5041023;28;43503;-68
2022/01/01 04:47:47;;;;;;;12.30;7.80;;;21.50;49.10;;;;;;5074783;27;43533;-68
2022/01/01 04:50:15;;;;;;;11.73;7.68;;;21.50;49.10;;;;;;5076321;27;43511;-67
2022/01/01 04:52:43;;;;;;;13.15;8.10;;;21.50;49.10;;;;;;5076362;27;44133;-68
2022/01/01 04:55:10;;;;;;;11.05;7.43;;;21.50;49.10;;;;;;5027603;28;43714;-68
2022/01/01 04:57:38;;;;;;;12.27;7.82;;;21.40;49.00;;;;;;5043843;28;43498;-66
2022/01/01 05:00:06;;;;;;;12.63;7.50;;;21.40;49.00;;;;;;5078547;27;43498;-68
2022/01/01 05:02:34;;;;;;;11.90;7.70;;;21.40;49.10;;;;;;5044008;28;43564;-68
2022/01/01 05:05:01;;;;;;;11.52;7.50;;;21.40;49.00;;;;;;5077054;28;44535;-68
2022/01/01 05:07:29;;;;;;;12.02;7.15;;;21.40;49.00;;;;;;5043114;28;43463;-68
2022/01/01 05:09:56;;;;;;;11.85;7.47;;;21.40;49.30;;;;;;5043962;28;43451;-68
2022/01/01 05:12:24;;;;;;;12.27;7.28;;;21.40;49.00;;;;;;5042768;28;43953;-69
2022/01/01 05:14:51;;;;;;;11.70;7.50;;;21.40;49.10;;;;;;5077896;27;43439;-68
2022/01/01 05:17:19;;;;;;;12.15;7.72;;;21.40;49.10;;;;;;5076476;28;43457;-68
2022/01/01 05:19:46;;;;;;;11.75;7.22;;;21.40;49.10;;;;;;5077286;28;43502;-69
2022/01/01 05:22:15;;;;;;;12.40;7.80;;;21.40;49.10;;;;;;5075684;27;46036;-67
2022/01/01 05:24:42;;;;;;;10.15;7.20;;;21.30;49.10;;;;;;5077379;28;44320;-67
2022/01/01 05:27:10;;;;;;;11.88;7.85;;;21.40;49.10;;;;;;5071150;28;43477;-69
2022/01/01 05:29:37;;;;;;;10.73;7.30;;;21.30;49.10;;;;;;5076550;28;43441;-68
2022/01/01 05:32:05;;;;;;;11.48;7.35;;;21.40;49.20;;;;;;5075880;27;44636;-68
2022/01/01 05:34:32;;;;;;;10.43;7.50;;;21.30;49.10;;;;;;5043677;28;44761;-68
2022/01/01 05:37:00;;;;;;;11.07;7.63;;;21.30;49.10;;;;;;5042698;28;43484;-68
2022/01/01 05:39:27;;;;;;;10.43;7.20;;;21.30;49.20;;;;;;5074115;27;43661;-67
2022/01/01 05:41:55;;;;;;;11.35;7.65;;;21.30;49.20;;;;;;5042461;28;45977;-68
2022/01/01 05:44:22;;;;;;;10.63;7.68;;;21.30;49.20;;;;;;5026312;28;43561;-67
2022/01/01 05:46:52;;;;;;;11.90;7.68;;;21.30;49.20;;;;;;5075275;27;43528;-68
2022/01/01 05:49:20;;;;;;;10.40;7.65;;;21.30;49.20;;;;;;5075336;28;43479;-67
2022/01/01 05:51:49;;;;;;;10.55;7.70;;;21.30;49.30;;;;;;5042109;28;43933;-69
2022/01/01 05:54:19;;;;;;;11.30;8.20;;;21.30;49.30;;;;;;5075299;27;44069;-68
2022/01/01 05:56:47;;;;;;;9.88;7.88;;;21.20;49.20;;;;;;5076635;28;43415;-68
2022/01/01 05:59:14;;;;;;;11.98;8.05;;;21.20;49.20;;;;;;5074002;28;43625;-67
2022/01/01 06:01:42;;;;;;;12.45;7.45;;;21.20;49.20;;;;;;5057475;28;46093;-67
2022/01/01 06:04:10;;;;;;;11.25;8.27;;;21.20;49.20;;;;;;5076046;28;45258;-67
2022/01/01 06:06:37;;;;;;;11.18;8.38;;;21.20;49.20;;;;;;5076067;28;43435;-68
2022/01/01 06:09:05;;;;;;;10.07;7.43;;;21.20;49.20;;;;;;5041565;28;43596;-68
2022/01/01 06:11:32;;;;;;;12.88;7.97;;;21.20;49.20;;;;;;5057027;28;45404;-70
2022/01/01 06:14:00;;;;;;;10.98;7.57;;;21.20;49.80;;;;;;5075935;27;43489;-67
2022/01/01 06:16:28;;;;;;;11.10;7.72;;;21.20;49.20;;;;;;5056786;28;43494;-67
2022/01/01 06:18:56;;;;;;;12.00;8.10;;;21.20;49.20;;;;;;5059231;28;43677;-68
2022/01/01 06:21:24;;;;;;;12.63;9.00;;;21.20;49.20;;;;;;5075082;27;45720;-68
2022/01/01 06:23:52;;;;;;;10.25;8.18;;;21.20;49.30;;;;;;5041877;28;43460;-69
2022/01/01 06:26:19;;;;;;;11.00;8.25;;;21.20;49.30;;;;;;5075297;28;43552;-67
2022/01/01 06:28:47;;;;;;;12.00;8.68;;;21.20;49.30;;;;;;5038702;28;43616;-68
2022/01/01 06:31:14;;;;;;;11.32;8.25;;;21.20;49.30;;;;;;5075578;28;44024;-68
2022/01/01 06:33:42;;;;;;;10.65;8.02;;;21.20;49.30;;;;;;5059159;28;44626;-68
2022/01/01 06:36:12;;;;;;;9.65;7.88;;;21.20;49.30;;;;;;5074991;28;43439;-68
2022/01/01 06:38:41;;;;;;;9.80;8.30;;;21.10;49.30;;;;;;5074906;28;43575;-68
2022/01/01 06:41:10;;;;;;;9.52;7.93;;;21.10;49.30;;;;;;5040564;28;45408;-68
2022/01/01 06:43:38;;;;;;;8.85;7.47;;;21.10;49.30;;;;;;5035091;28;43442;-68
2022/01/01 06:46:06;;;;;;;10.32;7.78;;;21.10;49.30;;;;;;5038844;28;43527;-68
2022/01/01 06:48:34;;;;;;;10.32;8.20;;;21.10;49.30;;;;;;5075767;28;43483;-67
2022/01/01 06:51:02;;;;;;;9.95;7.53;;;21.10;49.30;;;;;;5042696;28;44216;-68
2022/01/01 06:53:30;;;;;;;9.73;7.78;;;21.10;49.30;;;;;;5075029;28;43550;-68
2022/01/01 06:55:59;;;;;;;9.63;7.55;;;21.10;49.30;;;;;;5075901;28;43445;-67
2022/01/01 06:58:27;;;;;;;9.02;7.57;;;21.10;49.30;;;;;;5041011;28;43988;-67
2022/01/01 07:00:54;;;;;;;10.48;7.32;;;21.10;49.30;;;;;;5024479;28;44073;-68
2022/01/01 07:03:25;;;;;;;9.50;7.00;;;21.10;49.40;;;;;;5074692;28;44882;-69
2022/01/01 07:05:53;;;;;;;9.50;7.35;;;21.10;49.40;;;;;;5075375;28;43545;-68
2022/01/01 07:08:20;;;;;;;9.95;7.70;;;21.10;49.40;;;;;;5073929;28;43638;-68
2022/01/01 07:10:48;;;;;;;8.43;7.30;;;21.10;50.10;;;;;;5075245;28;43951;-69
2022/01/01 07:13:16;;;;;;;9.32;7.78;;;21.10;49.50;;;;;;5074899;27;44343;-69
2022/01/01 07:15:44;;;;;;;10.23;7.50;;;21.00;49.40;;;;;;5041246;28;43515;-68
2022/01/01 07:18:13;;;;;;;8.70;7.03;;;21.10;49.50;;;;;;5042476;28;43526;-68
2022/01/01 07:20:40;;;;;;;10.18;7.45;;;21.00;49.40;;;;;;5041485;28;45312;-68
2022/01/01 07:23:08;;;;;;;8.88;6.93;;;21.00;49.50;;;;;;5074163;28;44883;-69
2022/01/01 07:25:35;;;;;;;9.05;6.88;;;21.10;49.50;;;;;;5041290;28;43516;-67
2022/01/01 07:28:03;;;;;;;8.55;6.88;;;21.10;49.50;;;;;;5071386;28;43515;-68
2022/01/01 07:30:30;;;;;;;8.23;6.40;;;21.00;49.40;;;;;;5015628;28;43950;-67
2022/01/01 07:32:58;;;;;;;7.38;6.10;;;21.00;49.40;;;;;;5037848;28;44397;-68
2022/01/01 07:35:26;;;;;;;8.48;6.70;;;21.10;49.50;;;;;;5041466;28;43388;-67
2022/01/01 07:37:53;;;;;;;8.65;6.40;;;21.10;49.50;;;;;;5024695;28;43531;-69
2022/01/01 07:40:21;;;;;;;7.60;6.63;;;21.00;49.90;;;;;;5075241;27;43936;-69
2022/01/01 07:42:48;;;;;;;8.57;6.32;;;21.00;49.50;;;;;;5073680;27;44877;-69
2022/01/01 07:45:18;;;;;;;8.38;6.32;;;21.00;49.50;;;;;;5040947;28;43528;-68
2022/01/01 07:47:45;;;;;;;9.82;6.55;;;21.00;49.50;;;;;;5057771;28;43666;-69
2022/01/01 07:50:13;;;;;;;8.27;5.90;;;21.10;49.60;;;;;;5041209;28;45662;-68
2022/01/01 07:52:42;;;;;;;7.97;5.72;;;21.10;49.60;;;;;;5074230;28;44398;-68
2022/01/01 07:55:10;;;;;;;6.55;5.38;;;21.10;49.60;;;;;;5041538;28;43438;-67
2022/01/01 07:57:38;;;;;;;7.60;5.90;;;21.10;49.60;;;;;;5074409;27;43551;-67
2022/01/01 08:00:07;;;;;;;7.28;6.05;;;21.10;49.50;;;;;;5074881;28;44667;-68
2022/01/01 08:02:45;;;;;;;6.93;5.63;;;21.10;49.50;;;;;;5040393;28;44628;-68
2022/01/01 08:05:14;;;;;;;7.30;5.78;;;21.10;49.50;;;;;;5075397;28;44417;-68
2022/01/01 08:07:41;;;;;;;7.80;5.60;;;21.10;49.50;;;;;;5074706;27;43568;-68
2022/01/01 08:10:29;;;;;;;6.97;5.60;;;21.10;49.40;;;;;;5072992;28;44908;-68
2022/01/01 08:12:57;;;;;;;7.68;5.65;;;21.10;49.40;;;;;;5041092;28;44494;-69
2022/01/01 08:15:25;;;;;;;6.60;4.97;;;21.20;49.50;;;;;;5074646;27;43509;-68
2022/01/01 08:17:52;;;;;;;7.63;5.53;;;21.10;49.50;;;;;;5074054;27;43485;-68
2022/01/01 08:20:20;;;;;;;6.70;5.43;;;21.20;49.50;;;;;;5024340;28;43916;-69
2022/01/01 08:22:47;;;;;;;7.15;5.60;;;21.20;49.50;;;;;;5073465;28;43626;-68
2022/01/01 08:25:16;;;;;;;6.07;4.88;;;21.20;49.50;;;;;;5036834;28;43531;-68
2022/01/01 08:27:43;;;;;;;6.20;5.15;;;21.20;49.40;;;;;;5073792;27;43471;-67
2022/01/01 08:30:14;;;;;;;7.50;5.75;;;21.20;49.40;;;;;;5062252;28;44222;-67
2022/01/01 08:32:42;;;;;;;6.13;5.28;;;21.20;49.40;;;;;;5071150;28;43502;-67
2022/01/01 08:35:10;;;;;;;5.90;5.03;;;21.30;49.50;;;;;;5038050;28;44189;-68
2022/01/01 08:37:37;;;;;;;5.20;4.43;;;21.20;49.40;;;;;;5073093;28;43521;-68
2022/01/01 08:40:06;;;;;;;6.15;5.07;;;21.30;49.40;;;;;;5040947;28;45925;-67
2022/01/01 08:42:33;;;;;;;6.32;5.28;;;21.30;49.40;;;;;;5073165;28;43673;-68
2022/01/01 08:45:01;;;;;;;7.35;5.25;;;21.30;49.40;;;;;;5073985;28;43506;-67
2022/01/01 08:47:28;;;;;;;6.15;4.68;;;21.30;49.30;;;;;;5039289;28;43613;-68
2022/01/01 08:49:56;;;;;;;8.07;5.18;;;21.30;49.40;;;;;;5073099;28;44237;-68
2022/01/01 08:52:24;;;;;;;7.32;5.25;;;21.30;49.40;;;;;;5038582;28;43475;-67
2022/01/01 08:54:56;;;;;;;5.97;4.55;;;21.30;49.40;;;;;;5039980;28;43511;-68
2022/01/01 08:57:24;;;;;;;5.78;4.43;;;21.30;49.50;;;;;;5039118;28;43512;-67
2022/01/01 08:59:52;;;;;;;6.60;4.93;;;21.30;49.40;;;;;;5074713;27;44093;-67
2022/01/01 09:02:20;;;;;;;5.88;4.68;;;21.30;49.50;;;;;;5039879;28;43982;-67
2022/01/01 09:04:47;;;;;;;6.60;4.85;;;21.40;49.50;;;;;;5034543;28;43554;-67
2022/01/01 09:07:15;;;;;;;6.10;4.60;;;21.40;50.20;;;;;;5038967;28;43479;-67
2022/01/01 09:09:43;;;;;;;6.60;4.57;;;21.40;49.50;;;;;;5073438;27;43936;-67
2022/01/01 09:12:11;;;;;;;4.65;4.10;;;21.40;49.50;;;;;;5038740;28;43512;-68
2022/01/01 09:14:39;;;;;;;5.63;4.38;;;21.40;49.50;;;;;;5070912;27;43459;-67
2022/01/01 09:17:07;;;;;;;5.68;4.20;;;21.40;49.60;;;;;;5055274;28;43516;-67
2022/01/01 09:19:34;;;;;;;5.80;4.40;;;21.40;49.70;;;;;;5041239;28;43659;-67
2022/01/01 09:22:02;;;;;;;6.18;4.20;;;21.40;49.70;;;;;;5073263;28;43561;-67
2022/01/01 09:24:30;;;;;;;6.15;4.65;;;21.50;49.60;;;;;;5037975;28;43546;-68
2022/01/01 09:26:58;;;;;;;5.93;4.30;;;21.40;49.80;;;;;;5041145;28;43440;-67
2022/01/01 09:29:25;;;;;;;7.03;4.13;;;21.50;49.80;;;;;;5073342;27;43998;-66
2022/01/01 09:31:53;;;;;;;6.03;4.43;;;21.50;49.90;;;;;;5039234;28;43507;-67
2022/01/01 09:34:20;;;;;;;6.35;4.63;;;21.50;49.90;;;;;;5037937;28;43400;-66
2022/01/01 09:36:49;;;;;;;8.35;4.82;;;21.50;49.80;;;;;;5042520;28;43547;-66
2022/01/01 09:39:17;;;;;;;5.82;4.28;;;21.60;49.80;;;;;;5044026;28;45335;-68
2022/01/01 09:41:45;;;;;;;7.55;4.70;;;21.60;49.80;;;;;;5044296;28;43658;-67
2022/01/01 09:44:17;;;;;;;5.40;4.25;;;21.60;49.80;;;;;;5076438;28;43428;-68
2022/01/01 09:46:48;;;;;;;6.25;4.22;;;21.60;49.80;;;;;;5074003;28;43530;-66
2022/01/01 09:49:18;;;;;;;6.00;4.22;;;21.60;49.80;;;;;;5043105;28;45337;-66
2022/01/01 09:51:46;;;;;;;5.50;4.25;;;21.60;49.80;;;;;;5076909;28;43531;-67
2022/01/01 09:54:14;;;;;;;4.82;4.30;;;21.60;49.80;;;;;;5076963;28;43475;-67
2022/01/01 09:56:41;;;;;;;6.32;4.28;;;21.60;49.90;;;;;;5042813;28;44013;-66
2022/01/01 09:59:11;;;;;;;5.47;4.20;;;21.70;49.90;;;;;;5043127;28;45833;-67
2022/01/01 10:01:43;;;;;;;5.47;4.30;;;21.70;50.00;;;;;;5075933;28;43529;-66
2022/01/01 10:04:12;;;;;;;6.47;4.47;;;21.70;49.90;;;;;;5076548;28;43474;-68
2022/01/01 10:06:41;;;;;;;6.22;4.32;;;21.70;50.00;;;;;;5076982;28;43530;-66
2022/01/01 10:09:09;;;;;;;4.97;4.13;;;21.70;49.90;;;;;;5076921;27;44008;-66
2022/01/01 10:11:37;;;;;;;5.97;4.20;;;21.70;49.90;;;;;;5025187;28;43840;-67
2022/01/01 10:14:08;;;;;;;4.53;4.03;;;21.70;50.10;;;;;;5076406;27;43500;-66
2022/01/01 10:16:42;;;;;;;7.13;4.35;;;21.70;49.90;;;;;;5064081;28;43481;-66
2022/01/01 10:19:10;;;;;;;6.35;4.50;;;21.70;50.00;;;;;;5072970;28;43946;-67
2022/01/01 10:21:41;;;;;;;6.38;4.13;;;21.70;49.90;;;;;;5073087;28;44759;-67
2022/01/01 10:24:29;;;;;;;5.47;4.20;;;21.80;49.90;;;;;;5040357;28;43634;-68
2022/01/01 10:29:57;;;;;;;7.45;4.30;;;21.80;49.80;;;;;;5076210;28;45642;-67
2022/01/01 10:32:24;;;;;;;6.90;4.43;;;21.80;49.90;;;;;;5041433;28;44776;-66
2022/01/01 10:34:52;;;;;;;5.82;3.90;;;21.80;49.80;;;;;;5076290;28;43455;-67
2022/01/01 10:37:34;;;;;;;5.95;4.00;;;21.80;49.90;;;;;;5076071;28;43447;-66
2022/01/01 10:40:08;;;;;;;6.45;4.80;;;21.80;49.90;;;;;;5044282;28;44011;-68
2022/01/01 10:42:36;;;;;;;4.32;3.85;;;21.90;50.00;;;;;;5075692;28;43566;-67
2022/01/01 10:45:04;;;;;;;4.57;3.88;;;21.90;49.90;;;;;;5076502;28;43490;-67
2022/01/01 10:47:33;;;;;;;5.38;3.83;;;21.90;49.80;;;;;;5074399;27;43541;-67
2022/01/01 10:52:45;;;;;;;5.15;4.03;;;21.90;49.90;;;;;;5075539;28;43757;-68
2022/01/01 10:55:15;;;;;;;4.80;3.83;;;21.90;49.80;;;;;;5073406;28;44041;-67
2022/01/01 10:57:52;;;;;;;5.68;4.35;;;21.90;49.80;;;;;;5075798;27;43585;-67
2022/01/01 11:00:23;;;;;;;4.95;4.03;;;21.90;49.80;;;;;;5038740;28;43606;-67
2022/01/01 11:02:53;;;;;;;5.70;4.13;;;21.90;49.80;;;;;;5041479;28;44998;-67
2022/01/01 11:05:27;;;;;;;5.15;3.97;;;21.90;49.80;;;;;;5076328;27;43483;-68
2022/01/01 11:07:54;;;;;;;4.95;3.88;;;21.90;49.80;;;;;;5075473;27;43447;-67
2022/01/01 11:10:23;;;;;;;4.72;3.95;;;21.90;49.80;;;;;;5074816;28;45336;-66
2022/01/01 11:12:51;;;;;;;4.32;3.80;;;21.90;49.80;;;;;;5074884;28;43699;-67
2022/01/01 11:15:20;;;;;;;4.82;3.88;;;21.90;49.80;;;;;;5041600;28;43987;-68
2022/01/01 11:17:48;;;;;;;4.05;3.63;;;22.00;49.80;;;;;;5071539;28;43656;-67
2022/01/01 11:20:18;;;;;;;4.75;4.20;;;22.00;49.80;;;;;;5075778;28;43950;-66
2022/01/01 11:22:49;;;;;;;4.47;3.70;;;22.00;49.80;;;;;;5075334;27;43517;-67
2022/01/01 11:25:17;;;;;;;4.20;3.53;;;22.00;49.80;;;;;;5040136;28;44182;-68
2022/01/01 11:27:46;;;;;;;4.70;3.72;;;22.00;49.80;;;;;;5092487;27;44099;-67
2022/01/01 11:30:15;;;;;;;4.78;3.85;;;22.00;49.90;;;;;;5075204;28;46533;-67
2022/01/01 11:33:10;;;;;;;4.63;3.53;;;22.00;49.80;;;;;;5042246;28;43474;-67
2022/01/01 11:35:43;;;;;;;5.60;3.60;;;22.10;49.80;;;;;;5073285;28;44063;-68
2022/01/01 11:38:13;;;;;;;4.28;3.40;;;22.10;49.80;;;;;;5041758;28;43518;-68
2022/01/01 11:41:04;;;;;;;3.53;3.15;;;22.10;49.80;;;;;;5040688;28;43961;-67
2022/01/01 11:43:33;;;;;;;4.70;3.70;;;22.10;49.70;;;;;;5074774;28;43611;-68
2022/01/01 11:46:17;;;;;;;4.18;2.90;;;22.10;49.70;;;;;;5074846;28;43483;-67
2022/01/01 11:48:48;;;;;;;3.80;3.40;;;22.10;49.70;;;;;;5057849;28;44045;-68
2022/01/01 11:51:20;;;;;;;3.88;3.53;;;22.10;49.70;;;;;;5074314;28;45306;-67
2022/01/01 11:54:06;;;;;;;4.63;3.45;;;22.20;49.70;;;;;;5074531;28;43513;-67
2022/01/01 11:56:52;;;;;;;4.95;3.83;;;22.20;49.70;;;;;;5041685;28;43979;-66
2022/01/01 11:59:22;;;;;;;3.95;3.22;;;22.20;49.70;;;;;;5039342;28;43626;-68
2022/01/01 12:01:51;;;;;;;4.45;3.28;;;22.20;49.70;;;;;;5041761;28;43583;-67
2022/01/01 12:04:27;;;;;;;3.25;2.95;;;22.20;49.70;;;;;;5073402;28;44479;-67
2022/01/01 12:06:59;;;;;;;5.00;3.30;;;22.30;49.70;;;;;;5040860;28;43539;-67
2022/01/01 12:09:27;;;;;;;3.55;3.10;;;22.30;49.70;;;;;;5024069;28;43510;-68
2022/01/01 12:11:57;;;;;;;4.32;3.22;;;22.30;49.70;;;;;;5073598;27;44737;-67
2022/01/01 12:14:30;;;;;;;4.57;3.65;;;22.30;49.70;;;;;;5057672;28;43508;-68
2022/01/01 12:17:02;;;;;;;3.30;3.00;;;22.30;49.60;;;;;;5068823;28;43512;-68
2022/01/01 12:19:37;;;;;;;3.72;3.33;;;22.30;49.60;;;;;;5068970;28;44151;-68
2022/01/01 12:22:07;;;;;;;3.67;3.22;;;22.30;49.60;;;;;;5073309;28;44905;-68
2022/01/01 12:24:39;;;;;;;3.47;3.10;;;22.30;49.70;;;;;;5072660;28;44957;-68
2022/01/01 12:27:14;;;;;;;3.35;2.80;;;22.40;49.60;;;;;;5039454;28;43545;-67
2022/01/01 12:29:41;;;;;;;4.05;3.03;;;22.40;49.60;;;;;;5040265;28;43476;-67
2022/01/01 12:32:09;;;;;;;3.30;3.00;;;22.40;49.60;;;;;;5073426;28;45363;-66
2022/01/01 12:34:37;;;;;;;3.75;3.40;;;22.40;49.60;;;;;;5038107;28;43415;-67
2022/01/01 12:37:07;;;;;;;4.00;2.92;;;22.40;49.60;;;;;;5074327;28;43551;-67
2022/01/01 12:39:58;;;;;;;3.58;2.92;;;22.50;49.60;;;;;;5073922;28;43513;-68
2022/01/01 12:42:28;;;;;;;3.33;3.00;;;22.50;49.60;;;;;;5072614;28;44209;-68
2022/01/01 12:45:07;;;;;;;3.50;2.85;;;22.50;49.60;;;;;;5039639;28;43481;-69
2022/01/01 12:47:35;;;;;;;3.40;2.80;;;22.50;49.60;;;;;;5038170;28;43434;-68
2022/01/01 12:50:05;;;;;;;3.25;2.95;;;22.50;49.60;;;;;;5073698;27;43537;-67
2022/01/01 12:52:33;;;;;;;3.08;2.88;;;22.50;49.60;;;;;;5073548;28;46455;-67
2022/01/01 12:55:01;;;;;;;2.80;2.60;;;22.50;49.50;;;;;;5056385;28;43532;-67
2022/01/01 12:57:32;;;;;;;3.05;2.70;;;22.60;49.60;;;;;;5039446;28;43474;-68
2022/01/01 13:00:19;;;;;;;4.50;3.20;;;22.60;49.60;;;;;;5073816;28;44324;-67